Flight Track Log - Related Links

Times and Time Zones

All times are in EDT time to prevent confusion due to time zone crossing. See the AAY876 flight status page for this flight to view local times or setup timezone preferences in your user account.

Time Position Orientation Groundspeed Altitude Reporting Facility
EDT Latitude Longitude Course Direction KTS MPH feet Rate Location/Type
Thu 03:02:50 PM 27.9333 -82.7000 360° North 185 213 1,000  Level Tampa TRACON
Thu 03:03:08 PM 27.9500 -82.7000 360° North 178 205 1,400 1,154 Climbing Tampa TRACON
Thu 03:04:08 PM 28.0000 -82.6667 30° Northeast 233 268 2,500 1,300 Climbing Tampa TRACON
Thu 03:05:08 PM 28.0667 -82.6667 360° North 286 329 4,000 1,873 Climbing Tampa TRACON
Thu 03:07:33 PM 28.2500 -82.7158 347° North 281 323 8,900 1,961 Climbing Jacksonville Center
Thu 03:08:33 PM 28.3333 -82.7322 350° North 288 331 10,700 1,450 Climbing Jacksonville Center
Thu 03:09:33 PM 28.4294 -82.7486 351° North 314 361 11,800 1,400 Climbing Jacksonville Center
Thu 03:10:33 PM 28.5358 -82.7769 347° North 358 412 13,500 1,850 Climbing Jacksonville Center
Thu 03:11:33 PM 28.6508 -82.8050 348° North 396 456 15,500 2,100 Climbing Jacksonville Center
Thu 03:12:33 PM 28.7656 -82.8333 348° North 411 473 17,700 1,800 Climbing Jacksonville Center
Thu 03:13:33 PM 28.8825 -82.8617 348° North 418 481 19,100 1,350 Climbing Jacksonville Center
Thu 03:14:33 PM 29.0014 -82.8925 347° North 425 489 20,400 1,350 Climbing Jacksonville Center
Thu 03:15:33 PM 29.1244 -82.9233 348° North 436 502 21,800 1,350 Climbing Jacksonville Center
Thu 03:16:33 PM 29.2519 -82.9569 347° North 448 516 23,100 1,550 Climbing Jacksonville Center
Thu 03:17:33 PM 29.3772 -82.9903 347° North 453 521 24,900 1,800 Climbing Jacksonville Center
Thu 03:18:33 PM 29.5022 -83.0214 348° North 453 521 26,700 1,750 Climbing Jacksonville Center
Thu 03:19:33 PM 29.6192 -83.0597 344° North 446 513 28,400 1,400 Climbing Jacksonville Center
Thu 03:20:33 PM 29.7319 -83.1103 339° North 434 499 29,500 900 Climbing Jacksonville Center
Thu 03:21:33 PM 29.8425 -83.1631 338° Northwest 428 493 30,200 950 Climbing Jacksonville Center
Thu 03:22:33 PM 29.9550 -83.2139 339° North 428 493 31,400 850 Climbing Jacksonville Center
Thu 03:23:33 PM 30.0614 -83.2644 338° Northwest 428 493 31,900 250 Climbing Jacksonville Center
Thu 03:24:33 PM 30.1719 -83.3156 338° Northwest 428 493 31,900  Level Jacksonville Center
Thu 03:25:33 PM 30.2781 -83.3642 338° Northwest 422 486 31,900  Level Jacksonville Center
Thu 03:26:33 PM 30.3844 -83.4150 338° Northwest 416 479 31,900  Level Jacksonville Center
Thu 03:27:33 PM 30.4908 -83.4639 338° Northwest 416 479 31,900  Level Jacksonville Center
Thu 03:28:33 PM 30.5969 -83.5128 338° Northwest 416 479 31,900  Level Jacksonville Center
Thu 03:29:33 PM 30.7033 -83.5642 337° Northwest 416 479 31,900 50 Level Jacksonville Center
Thu 03:30:33 PM 30.8156 -83.6183 337° Northwest 410 472 32,000 50 Climbing Jacksonville Center
Thu 03:31:33 PM 30.9219 -83.6700 337° Northwest 410 472 32,000  Level Jacksonville Center
Thu 03:32:33 PM 31.0281 -83.7217 337° Northwest 410 472 32,000  Level Jacksonville Center
Thu 03:33:33 PM 31.1342 -83.7711 338° Northwest 410 472 32,000  Level Jacksonville Center
Thu 03:34:33 PM 31.2425 -83.8233 338° Northwest 415 478 32,000  Level Jacksonville Center
Thu 03:36:22 PM 31.4378 -83.9172 338° Northwest 421 484 32,000  Level Atlanta Center
Thu 03:37:22 PM 31.5461 -83.9658 339° North 416 479 32,000  Level Atlanta Center
Thu 03:38:22 PM 31.6653 -83.9925 349° North 416 479 32,000  Level Atlanta Center
Thu 03:39:22 PM 31.7842 -84.0169 350° North 421 484 32,000  Level Atlanta Center
Thu 03:40:22 PM 31.8906 -84.0389 350° North 426 490 32,000  Level Atlanta Center
Thu 03:41:22 PM 32.0097 -84.0658 349° North 431 496 32,000 -50 Level Atlanta Center
Thu 03:42:22 PM 32.1264 -84.0928 349° North 431 496 31,900  Descending Atlanta Center
Thu 03:43:22 PM 32.2456 -84.1175 350° North 431 496 32,000 50 Climbing Atlanta Center
Thu 03:44:22 PM 32.3603 -84.1447 349° North 426 490 32,000  Level Atlanta Center
Thu 03:45:22 PM 32.4769 -84.1719 349° North 426 490 32,000  Level Atlanta Center
Thu 03:46:22 PM 32.5961 -84.1967 350° North 426 490 32,000  Level Atlanta Center
Thu 03:47:22 PM 32.7128 -84.2239 349° North 426 490 32,000  Level Atlanta Center
Thu 03:48:22 PM 32.8403 -84.2589 347° North 426 490 32,000  Level Atlanta Center
Thu 03:49:22 PM 32.9592 -84.2839 350° North 431 496 32,000  Level Atlanta Center
Thu 03:50:22 PM 33.0739 -84.3089 350° North 425 489 32,000  Level Atlanta Center
Thu 03:51:22 PM 33.1928 -84.3367 349° North 431 496 32,000  Level Atlanta Center
Thu 03:52:22 PM 33.2969 -84.3594 350° North 431 496 32,000  Level Atlanta Center
Thu 03:53:22 PM 33.4158 -84.3872 349° North 431 496 32,000  Level Atlanta Center
Thu 03:54:22 PM 33.5306 -84.4150 349° North 426 490 32,000  Level Atlanta Center
Thu 03:55:22 PM 33.6494 -84.4431 349° North 426 490 32,000  Level Atlanta Center
Thu 03:56:22 PM 33.7642 -84.4711 349° North 426 490 32,000  Level Atlanta Center
Thu 03:57:22 PM 33.8831 -84.4992 349° North 432 497 32,000  Level Atlanta Center
Thu 03:58:22 PM 34.0144 -84.5300 349° North 432 497 32,000  Level Atlanta Center
Thu 03:59:22 PM 34.1356 -84.5583 349° North 432 497 32,000  Level Atlanta Center
Thu 04:00:22 PM 34.2397 -84.5842 348° North 438 504 32,000  Level Atlanta Center
Thu 04:01:22 PM 34.3586 -84.6125 349° North 427 491 32,000  Level Atlanta Center
Thu 04:02:22 PM 34.4731 -84.6411 348° North 427 491 32,000 -50 Level Atlanta Center
Thu 04:03:22 PM 34.5900 -84.6669 350° North 427 491 31,900  Descending Atlanta Center
Thu 04:04:22 PM 34.7044 -84.7008 346° North 427 491 32,000 50 Climbing Atlanta Center
Thu 04:05:22 PM 34.8211 -84.7294 349° North 427 491 32,000  Level Atlanta Center
Thu 04:06:22 PM 34.9400 -84.7583 349° North 427 491 32,000  Level Atlanta Center
Thu 04:07:22 PM 35.0608 -84.7900 348° North 427 491 32,000  Level Atlanta Center
Thu 04:08:22 PM 35.1775 -84.8164 350° North 427 491 32,000  Level Atlanta Center
Thu 04:09:22 PM 35.2922 -84.8481 347° North 427 491 32,000  Level Atlanta Center
Thu 04:10:22 PM 35.4089 -84.8744 350° North 427 491 32,000  Level Atlanta Center
Thu 04:11:22 PM 35.5275 -84.9064 348° North 427 491 32,000  Level Atlanta Center
Thu 04:13:39 PM 35.7994 -84.9750 348° North 435 501 32,000  Level Indianapolis Center
Thu 04:14:41 PM 35.9225 -85.0044 349° North 440 506 32,000  Level Indianapolis Center
Thu 04:15:43 PM 36.0642 -85.0411 348° North 445 512 32,000  Level Indianapolis Center
Thu 04:16:45 PM 36.1867 -85.0725 348° North 448 516 32,000  Level Indianapolis Center
Thu 04:17:47 PM 36.3097 -85.1039 348° North 448 516 32,000  Level Indianapolis Center
Thu 04:18:49 PM 36.4317 -85.1356 348° North 448 516 32,000  Level Indianapolis Center
Thu 04:19:51 PM 36.5536 -85.1675 348° North 448 516 32,000  Level Indianapolis Center
Thu 04:20:53 PM 36.6753 -85.1997 348° North 447 514 32,000  Level Indianapolis Center
Thu 04:21:55 PM 36.8214 -85.2383 348° North 447 514 32,000  Level Indianapolis Center
Thu 04:22:58 PM 36.9444 -85.2697 348° North 448 516 32,000  Level Indianapolis Center
Thu 04:24:00 PM 37.0750 -85.3044 348° North 448 516 32,000  Level Indianapolis Center
Thu 04:25:02 PM 37.1961 -85.3367 348° North 448 516 32,000  Level Indianapolis Center
Thu 04:26:04 PM 37.3197 -85.3697 348° North 448 516 32,000  Level Indianapolis Center
Thu 04:27:06 PM 37.4428 -85.4011 349° North 448 516 32,000  Level Indianapolis Center
Thu 04:28:08 PM 37.5658 -85.4350 348° North 448 516 32,000  Level Indianapolis Center
Thu 04:29:11 PM 37.6894 -85.4678 348° North 450 518 32,000  Level Indianapolis Center
Thu 04:30:12 PM 37.8347 -85.5081 348° North 449 517 32,000  Level Indianapolis Center
Thu 04:31:14 PM 37.9581 -85.5400 348° North 449 517 32,000  Level Indianapolis Center
Thu 04:32:16 PM 38.0794 -85.5742 348° North 450 518 32,000  Level Indianapolis Center
Thu 04:33:18 PM 38.1953 -85.6319 339° North 448 516 32,000  Level Indianapolis Center
Thu 04:34:21 PM 38.3047 -85.6972 335° Northwest 441 507 32,000  Level Indianapolis Center
Thu 04:35:23 PM 38.4164 -85.7628 335° Northwest 441 507 32,000  Level Indianapolis Center
Thu 04:36:25 PM 38.5500 -85.8406 336° Northwest 440 506 32,000  Level Indianapolis Center
Thu 04:37:27 PM 38.6600 -85.9067 335° Northwest 440 506 32,000 -435 Level Indianapolis Center
Thu 04:38:29 PM 38.7697 -85.9719 335° Northwest 439 505 31,100 -968 Descending Indianapolis Center
Thu 04:39:31 PM 38.8803 -86.0372 335° Northwest 438 504 30,000 -532 Descending Indianapolis Center
Thu 04:40:33 PM 38.9928 -86.1050 335° Northwest 438 504 30,000  Level Indianapolis Center
Thu 04:41:35 PM 39.1047 -86.1714 335° Northwest 439 505 30,000  Level Indianapolis Center
Thu 04:42:37 PM 39.2164 -86.2389 335° Northwest 440 506 30,000  Level Indianapolis Center
Thu 04:43:39 PM 39.3514 -86.3217 335° Northwest 441 507 30,000  Level Indianapolis Center
Thu 04:44:42 PM 39.4642 -86.3903 335° Northwest 442 509 30,000  Level Indianapolis Center
Thu 04:45:44 PM 39.5778 -86.4597 335° Northwest 443 510 30,000  Level Indianapolis Center
Thu 04:46:46 PM 39.6919 -86.5294 335° Northwest 443 510 30,000  Level Indianapolis Center
Thu 04:47:48 PM 39.8061 -86.6008 334° Northwest 445 512 30,000  Level Indianapolis Center
Thu 04:48:50 PM 39.9181 -86.6686 335° Northwest 444 511 30,000  Level Indianapolis Center
Thu 04:49:52 PM 40.0300 -86.7386 334° Northwest 444 511 30,000  Level Indianapolis Center
Thu 04:50:59 PM 40.1422 -86.8069 335° Northwest 444 511 30,000  Level Indianapolis Center
Thu 04:51:56 PM 40.2742 -86.8906 334° Northwest 441 507 30,000  Level Indianapolis Center
Thu 04:52:28 PM 40.3175 -86.9186 334° Northwest 438 504 30,000  Level Chicago Center
Thu 04:53:31 PM 40.4281 -86.9886 334° Northwest 439 505 30,000  Level Chicago Center
Thu 04:54:33 PM 40.5600 -87.0736 334° Northwest 439 505 30,000  Level Chicago Center
Thu 04:55:35 PM 40.6372 -87.1703 316° Northwest 419 482 30,000  Level Chicago Center
Thu 04:56:37 PM 40.7403 -87.2972 317° Northwest 421 484 30,000  Level Chicago Center
Thu 04:57:39 PM 40.8256 -87.4042 317° Northwest 422 486 30,000  Level Chicago Center
Thu 04:58:41 PM 40.9114 -87.5094 317° Northwest 421 484 30,000  Level Chicago Center
Thu 04:59:46 PM 40.9950 -87.6147 316° Northwest 418 481 30,000  Level Chicago Center
Thu 05:00:48 PM 41.0783 -87.7192 317° Northwest 414 476 30,000 -242 Level Chicago Center
Thu 05:01:50 PM 41.1772 -87.8450 316° Northwest 413 475 29,500 -768 Descending Chicago Center
Thu 05:02:53 PM 41.2597 -87.9489 317° Northwest 412 474 28,400 -1,248 Descending Chicago Center
Thu 05:03:55 PM 41.3431 -88.0564 316° Northwest 411 473 26,900 -1,548 Descending Chicago Center
Thu 05:04:57 PM 41.4350 -88.1719 317° Northwest 426 490 25,200 -1,452 Descending Chicago Center
Thu 05:05:59 PM 41.5203 -88.2808 316° Northwest 424 488 23,900 -1,306 Descending Chicago Center
Thu 05:07:01 PM 41.5633 -88.4089 294° West 385 443 22,500 -1,887 Descending Chicago Center
Thu 05:08:03 PM 41.5856 -88.5467 282° West 383 441 20,000 -2,710 Descending Chicago Center
Thu 05:09:05 PM 41.6111 -88.7067 282° West 373 429 16,900 -2,640 Descending Chicago Center
Thu 05:10:08 PM 41.6314 -88.8353 282° West 358 412 14,500 -1,920 Descending Chicago Center
Thu 05:11:10 PM 41.6514 -88.9589 282° West 345 397 12,900 -774 Descending Chicago Center
Thu 05:12:12 PM 41.6686 -89.0747 281° West 324 373 12,900  Level Chicago Center
Thu 05:13:14 PM 41.7083 -89.1797 297° West 327 376 12,900 -194 Level Chicago Center
Thu 05:14:16 PM 41.7789 -89.2517 323° Northwest 327 376 12,500 -1,016 Descending Chicago Center
Thu 05:15:18 PM 41.8800 -89.2314 North 307 353 10,800 -1,694 Descending Chicago Center
Thu 05:16:20 PM 41.9597 -89.1972 18° North 304 350 9,000 -1,872 Descending Chicago Center
Thu 05:17:23 PM 42.0319 -89.1664 18° North 275 316 6,900 -2,016 Descending Chicago Center
Thu 05:18:25 PM 42.1033 -89.1328 19° North 257 296 4,800 -1,839 Descending Chicago Center
Thu 05:19:27 PM 42.1425 -89.0725 49° Northeast 249 287 3,100 -1,065 Descending Chicago Center
Thu 05:20:29 PM 42.1669 -88.9758 71° East 246 283 2,600 -484 Descending Chicago Center

Login

Don't have an account? Register now (free) for customized features, flight alerts, and more!